Walnut Grove, Alabama
Current Conditions -  °F | °C
As of 10:15 AM on Thursday 29 Jan 2015 (Local Time) from K8A0 Reporting Station
Light Rain Light Rain  
Wind Chill: 43°   Ceiling: 8000
Heat Index: 48°   Visibility: 10mi
Dew Point: 37°   Wind: 13mph
Humidity: 66%   Direction: 180°S
Pressure: 30.19"   Gusts: 18mph
Location:  34.07°N, 86.31°W
Report Text: K8A0 291615Z AUTO 18011G16KT 10SM -RA OVC080 09/03 A3019 RMK AO2
Loading
Personal Weather Stations






























Interactive Weather Map New forecast layout! Learn more

10-Day Weather Forecast

Advertisements
Track Severe Weather on mobile